createdAt,value
2019-04-07T00:03:53.189Z,14.00
2019-04-07T00:08:54.923Z,13.90
2019-04-07T00:13:57.910Z,13.90
2019-04-07T00:19:00.153Z,14.00
2019-04-07T00:24:03.480Z,14.00
2019-04-07T00:29:05.381Z,14.00
2019-04-07T00:34:07.938Z,14.10
2019-04-07T00:39:10.577Z,14.20
2019-04-07T00:44:13.155Z,14.10
2019-04-07T00:49:18.527Z,14.00
2019-04-07T00:54:21.486Z,14.00
2019-04-07T00:59:24.222Z,14.10
2019-04-07T01:04:26.533Z,14.10
2019-04-07T01:09:28.879Z,14.10
2019-04-07T01:14:31.476Z,14.00
2019-04-07T01:19:34.424Z,13.90
2019-04-07T01:24:36.468Z,13.70
2019-04-07T01:29:38.994Z,13.80
2019-04-07T01:34:41.582Z,13.90
2019-04-07T01:39:44.085Z,13.90
2019-04-07T01:44:52.320Z,14.00
2019-04-07T01:50:00.677Z,13.90
2019-04-07T01:56:07.586Z,13.90
2019-04-07T02:01:17.377Z,13.80
2019-04-07T02:06:29.046Z,13.80
2019-04-07T02:11:37.572Z,13.80
2019-04-07T02:16:45.328Z,13.80
2019-04-07T02:22:52.263Z,13.70
2019-04-07T02:28:59.034Z,13.70
2019-04-07T02:34:13.502Z,13.60
2019-04-07T02:39:27.007Z,13.50
2019-04-07T02:44:35.402Z,13.50
2019-04-07T02:49:43.698Z,13.50
2019-04-07T02:54:57.272Z,13.40
2019-04-07T03:00:36.305Z,13.30
2019-04-07T03:05:44.172Z,13.30
2019-04-07T03:11:24.815Z,13.30
2019-04-07T03:16:31.787Z,13.20
2019-04-07T03:21:38.875Z,13.00
2019-04-07T03:27:51.574Z,12.90
2019-04-07T03:33:07.974Z,12.90
2019-04-07T03:38:13.907Z,12.70
2019-04-07T03:43:21.727Z,12.60
2019-04-07T03:48:30.389Z,12.60
2019-04-07T03:53:45.648Z,12.70
2019-04-07T03:58:52.523Z,12.70
2019-04-07T04:04:05.692Z,12.70
2019-04-07T04:09:13.879Z,12.60
2019-04-07T04:14:21.912Z,12.40
2019-04-07T04:19:23.501Z,12.10
2019-04-07T04:24:26.634Z,12.30
2019-04-07T04:29:28.580Z,12.30
2019-04-07T04:34:31.491Z,12.30
2019-04-07T04:39:33.728Z,12.30
2019-04-07T04:44:36.294Z,12.20
2019-04-07T04:49:41.723Z,12.20
2019-04-07T04:54:43.913Z,12.00
2019-04-07T04:59:46.607Z,12.00
2019-04-07T05:04:49.697Z,12.10
2019-04-07T05:09:54.117Z,12.10
2019-04-07T05:14:54.771Z,12.10
2019-04-07T05:19:56.751Z,12.10
2019-04-07T05:24:59.235Z,12.10
2019-04-07T05:30:02.462Z,12.10
2019-04-07T05:35:05.895Z,11.90
2019-04-07T05:40:07.950Z,12.00
2019-04-07T05:45:10.539Z,11.80
2019-04-07T05:50:13.308Z,11.90
2019-04-07T05:55:15.651Z,11.90
2019-04-07T06:00:18.891Z,11.60
2019-04-07T06:05:21.310Z,11.70
2019-04-07T06:10:27.724Z,11.50
2019-04-07T06:15:26.697Z,11.40
2019-04-07T06:20:29.282Z,11.30
2019-04-07T06:25:37.851Z,11.30
2019-04-07T06:30:36.120Z,11.40
2019-04-07T06:35:37.041Z,11.40
2019-04-07T06:40:40.477Z,11.50
2019-04-07T06:45:47.553Z,11.40
2019-04-07T06:50:58.370Z,11.60
2019-04-07T06:56:18.566Z,11.50
2019-04-07T07:01:42.806Z,12.20
2019-04-07T07:07:21.539Z,12.50
2019-04-07T07:12:38.442Z,12.10
2019-04-07T07:17:43.169Z,12.20
2019-04-07T07:22:49.599Z,12.60
2019-04-07T07:27:52.314Z,12.60
2019-04-07T07:32:55.128Z,12.90
2019-04-07T07:37:59.448Z,13.20
2019-04-07T07:42:59.953Z,13.70
2019-04-07T07:48:03.137Z,13.90
2019-04-07T07:53:05.807Z,13.70
2019-04-07T07:58:08.424Z,14.00
2019-04-07T08:03:10.771Z,14.10
2019-04-07T08:08:14.950Z,14.40
2019-04-07T08:13:16.791Z,14.90
2019-04-07T08:18:20.458Z,14.50
2019-04-07T08:23:23.732Z,14.70
2019-04-07T08:28:26.515Z,14.70
2019-04-07T08:33:29.584Z,15.10
2019-04-07T08:38:31.262Z,15.20
2019-04-07T08:43:34.081Z,15.00
2019-04-07T08:48:36.399Z,15.20
2019-04-07T08:53:38.983Z,15.20
2019-04-07T08:58:42.451Z,15.80
2019-04-07T09:03:45.695Z,16.70
2019-04-07T09:08:46.766Z,16.40
2019-04-07T09:13:52.608Z,16.80
2019-04-07T09:20:10.432Z,17.10
2019-04-07T09:25:19.422Z,17.40
2019-04-07T09:30:34.363Z,17.80
2019-04-07T09:35:54.730Z,18.30
2019-04-07T09:41:07.244Z,18.40
2019-04-07T09:46:16.825Z,18.90
2019-04-07T09:51:25.447Z,19.20
2019-04-07T09:56:34.268Z,19.40
2019-04-07T10:01:41.464Z,20.10
2019-04-07T10:08:56.546Z,20.00
2019-04-07T10:16:08.953Z,20.10
2019-04-07T10:21:15.720Z,19.80
2019-04-07T10:26:22.856Z,21.00
2019-04-07T10:31:33.748Z,21.50
2019-04-07T10:36:45.564Z,22.00
2019-04-07T10:42:01.383Z,22.30
2019-04-07T10:47:24.308Z,21.70
2019-04-07T10:52:32.854Z,21.80
2019-04-07T10:57:41.442Z,22.20
2019-04-07T11:02:58.107Z,22.50
2019-04-07T11:10:11.509Z,23.10
2019-04-07T11:15:20.288Z,24.00
2019-04-07T11:21:32.092Z,24.00
2019-04-07T11:26:40.446Z,22.90
2019-04-07T11:31:48.374Z,23.40
2019-04-07T11:36:54.668Z,24.40
2019-04-07T11:42:04.862Z,24.30
2019-04-07T11:47:11.025Z,24.00
2019-04-07T11:52:22.432Z,22.80
2019-04-07T11:57:33.524Z,23.00
2019-04-07T12:03:12.072Z,23.60
2019-04-07T12:08:20.383Z,24.00
2019-04-07T12:13:27.257Z,23.30
2019-04-07T12:18:55.627Z,22.60
2019-04-07T12:26:08.933Z,22.60
2019-04-07T12:31:16.315Z,22.60
2019-04-07T12:36:41.941Z,22.60
2019-04-07T12:41:55.898Z,22.70
2019-04-07T12:47:01.864Z,22.80
2019-04-07T12:52:42.240Z,22.60
2019-04-07T12:57:50.664Z,21.60
2019-04-07T13:02:59.749Z,22.10
2019-04-07T13:08:13.414Z,22.60
2019-04-07T13:13:33.005Z,22.70
2019-04-07T13:18:55.529Z,22.30
2019-04-07T13:24:12.683Z,21.90
2019-04-07T13:29:48.236Z,21.90
2019-04-07T13:35:04.443Z,21.60
2019-04-07T13:40:13.448Z,21.50
2019-04-07T13:45:21.583Z,21.30
2019-04-07T13:50:49.346Z,22.00
2019-04-07T13:56:29.620Z,22.30
2019-04-07T14:01:37.033Z,22.50
2019-04-07T14:06:46.800Z,22.60
2019-04-07T14:12:05.091Z,22.50
2019-04-07T14:17:05.041Z,21.90
2019-04-07T14:22:13.292Z,22.10
2019-04-07T14:27:26.651Z,21.70
2019-04-07T14:32:42.789Z,21.40
2019-04-07T14:38:49.855Z,21.20
2019-04-07T14:43:57.999Z,20.90
2019-04-07T14:51:11.548Z,20.20
2019-04-07T14:56:20.607Z,19.90
2019-04-07T15:02:00.540Z,19.90
2019-04-07T15:08:04.609Z,19.80
2019-04-07T15:13:11.896Z,19.80
2019-04-07T15:18:13.753Z,20.00
2019-04-07T15:23:16.567Z,19.80
2019-04-07T15:28:19.530Z,19.70
2019-04-07T15:33:22.339Z,19.60
2019-04-07T15:38:27.245Z,19.70
2019-04-07T15:43:27.822Z,19.70
2019-04-07T15:48:30.631Z,19.90
2019-04-07T15:53:33.067Z,20.00
2019-04-07T15:58:35.282Z,20.00
2019-04-07T16:03:37.672Z,19.80
2019-04-07T16:08:40.485Z,19.30
2019-04-07T16:13:42.866Z,19.30
2019-04-07T16:18:45.545Z,19.40
2019-04-07T16:23:51.752Z,19.40
2019-04-07T16:28:50.673Z,19.30
2019-04-07T16:33:54.034Z,19.30
2019-04-07T16:38:56.498Z,19.30
2019-04-07T16:43:58.740Z,19.00
2019-04-07T16:49:01.810Z,19.10
2019-04-07T16:54:08.084Z,18.90
2019-04-07T16:59:09.757Z,18.70
2019-04-07T17:04:09.449Z,18.80
2019-04-07T17:09:16.507Z,18.90
2019-04-07T17:14:18.730Z,18.70
2019-04-07T17:19:21.502Z,18.50
2019-04-07T17:24:27.787Z,18.60
2019-04-07T17:29:28.556Z,18.40
2019-04-07T17:34:29.427Z,18.20
2019-04-07T17:39:40.431Z,18.20
2019-04-07T17:45:45.125Z,18.30
2019-04-07T17:51:04.592Z,18.40
2019-04-07T17:56:08.787Z,18.20
2019-04-07T18:01:25.052Z,18.10
2019-04-07T18:06:33.521Z,18.00
2019-04-07T18:12:49.222Z,17.60
2019-04-07T18:18:08.139Z,17.40
2019-04-07T18:23:16.405Z,17.50
2019-04-07T18:28:30.096Z,17.30
2019-04-07T18:33:36.837Z,17.50
2019-04-07T18:38:48.407Z,17.40
2019-04-07T18:44:08.386Z,17.50
2019-04-07T18:50:12.188Z,17.40
2019-04-07T18:55:22.421Z,17.50
2019-04-07T19:00:32.474Z,17.40
2019-04-07T19:05:40.655Z,17.10
2019-04-07T19:10:55.191Z,17.00
2019-04-07T19:16:04.064Z,16.90
2019-04-07T19:21:16.822Z,16.80
2019-04-07T19:28:34.113Z,16.50
2019-04-07T19:33:39.724Z,16.10
2019-04-07T19:38:49.308Z,16.10
2019-04-07T19:43:55.632Z,16.10
2019-04-07T19:49:07.862Z,15.80
2019-04-07T19:54:21.430Z,15.70
2019-04-07T19:59:42.919Z,15.50
2019-04-07T20:04:53.183Z,15.80
2019-04-07T20:10:01.134Z,15.80
2019-04-07T20:17:17.414Z,15.90
2019-04-07T20:22:23.087Z,16.10
2019-04-07T20:27:29.788Z,16.20
2019-04-07T20:32:40.982Z,16.20
2019-04-07T20:38:21.436Z,16.40
2019-04-07T20:43:30.232Z,16.60
2019-04-07T20:48:43.244Z,16.60
2019-04-07T20:53:55.609Z,16.60
2019-04-07T21:00:06.607Z,16.60
2019-04-07T21:05:14.530Z,16.70
2019-04-07T21:10:53.845Z,16.60
2019-04-07T21:16:01.535Z,16.50
2019-04-07T21:21:12.180Z,16.40
2019-04-07T21:26:21.352Z,16.40
2019-04-07T21:31:30.154Z,16.40
2019-04-07T21:36:40.277Z,16.10
2019-04-07T21:41:46.395Z,15.60
2019-04-07T21:46:55.454Z,15.70
2019-04-07T21:52:02.544Z,15.80
2019-04-07T21:59:14.733Z,15.90
2019-04-07T22:04:25.457Z,16.00
2019-04-07T22:09:32.215Z,16.20
2019-04-07T22:14:37.592Z,16.10
2019-04-07T22:19:37.046Z,16.10
2019-04-07T22:24:39.604Z,16.00
2019-04-07T22:29:42.791Z,16.00
2019-04-07T22:34:44.781Z,15.90
2019-04-07T22:39:47.378Z,15.90
2019-04-07T22:44:53.309Z,15.80
2019-04-07T22:49:52.763Z,15.80
2019-04-07T22:54:56.035Z,15.70
2019-04-07T22:59:58.688Z,15.70
2019-04-07T23:05:00.838Z,15.70
2019-04-07T23:10:03.204Z,15.40
2019-04-07T23:15:07.862Z,14.00
2019-04-07T23:20:13.113Z,13.90
2019-04-07T23:25:15.604Z,14.40
2019-04-07T23:30:21.450Z,14.50
2019-04-07T23:35:24.437Z,14.70
2019-04-07T23:40:26.291Z,14.90
2019-04-07T23:45:28.800Z,15.00
2019-04-07T23:50:31.550Z,15.10
2019-04-07T23:55:33.920Z,15.20
